Wheeler, MI (48662)

6:49 AM EDT on April 26, 2017 (GMT -0400)
(MAC), Breckenridge | | Change Station

Elev 733 ft 43.41 °N, 84.46 °W | Updated 4 minutes ago

Mostly Cloudy
Mostly Cloudy
59.1 °F
Feels Like 59.1 °F
N
9.0
Wind Variable Wind from SSE
Gusts 9.0 mph

Today
High -- | Low -- °F
--% Chance of Precip.
Yesterday
High -- | Low -- °F
Precip. -- in
Pressure 29.64 in
Visibility 10.0 miles
Clouds Scattered Clouds 4400 ft
Scattered Clouds 12000 ft
Dew Point 55 °F
Humidity 86%
Rainfall 0.00 in
Snow Depth Not available.
6:37 AM 8:34 PM
Waning Crescent, 0% visible
METAR KAMN 261031Z AUTO 14007KT 10SM SCT044 SCT120 15/12 A2964 RMK AO2 T01470122
Pressure 29.64 in
Visibility 10.0 miles
Clouds Scattered Clouds 4400 ft
Scattered Clouds 12000 ft
Dew Point 55 °F
Humidity 86%
Rainfall 0.00 in
Snow Depth Not available.
6:37 AM 8:34 PM
Waning Crescent, 0% visible
METAR KAMN 261031Z AUTO 14007KT 10SM SCT044 SCT120 15/12 A2964 RMK AO2 T01470122

Get Severe Weather Alerts

Thanks for signing up!

Be on the lookout for a verification email in your inbox.

You'll start receiving the daily forecast at 8 AM.

×

10-Day Weather Forecast

Almanac

Astronomy

Apr. 26, 2017 Rise Set
Actual Time
Civil Twilight
Nautical Twilight
Astronomical Twilight
Moon
Length of Visible Light
Length of Day
Tomorrow will be .
, % of the Moon is Illuminated

Today's Extremes

State Highs State Lows

Community

WunderPhotos

WunderBlog® & News

Nearby

Air Quality

  Air Quality AQ Index Pollutant
Not available.

Snow Depth

Station Depth Elevation

Earthquake Activity

City Distance Mag. Time & Date
Minimum magnitude displayed is 2.5.

Coastal Water Temperatures

Place Temperature

Stations

Nearby Weather Stations

Station Location Temp. Windchill Dew Point Humidity Wind Precip. Elev Updated Type
                   

Watches & Warnings

There are currently no watches in effect.